Aviation Digital Data Service (ADDS)

Output produced by METARs form (0329 UTC 19 August 2019)
found at http://www.aviationweather.gov/metar/data/
 
Forecast for: DNAK (AKURE AIRPORT , NG)
Text: TAF DNAK 182250Z 1900/2006 00000KT 9999 SCT007
Forecast period: 0000 to 0700 UTC 19 August 2019
Forecast type: FROM: standard forecast or significant change
Winds: calm
Visibility: 6 or more miles 10+ km)
Ceiling: at least 12,000 feet AGL
Clouds: scattered clouds at 700 feet AGL
Weather: no significant weather forecast for this period
Text: TEMPO 1902/1905 5000 -RA
Forecast period: 0200 to 0500 UTC 19 August 2019
Forecast type: TEMPORARY: The following changes expected for less than half the time period
Visibility: 3 miles (5 km)
Ceiling: unknown
Clouds: missing
Weather: -RA  (light rain)
Text: BECMG 1907/1909 24010KT BKN012 FEW020CB
Forecast period: 0700 UTC 19 August 2019 to 0600 UTC 20 August 2019
Forecast type: BECOMING: Conditions expected to become as follows by 0900 UTC 19 August 2019
Winds: from the WSW (240 degrees) at 12 MPH (10 knots; 5.1 m/s)
Visibility: 6 or more miles 10+ km)
Ceiling: 1200 feet AGL
Clouds: broken clouds at 1200 feet AGL
few clouds at 2000 feet AGL
Weather: no significant weather forecast for this period